createdAt,value
2019-03-20T00:00:15.182Z,2.47
2019-03-20T00:02:41.712Z,3.87
2019-03-20T00:05:08.636Z,3.77
2019-03-20T00:07:35.010Z,2.67
2019-03-20T00:10:02.507Z,3.03
2019-03-20T00:12:29.208Z,2.90
2019-03-20T00:14:55.920Z,2.83
2019-03-20T00:17:22.366Z,2.70
2019-03-20T00:19:49.401Z,3.27
2019-03-20T00:22:15.762Z,2.47
2019-03-20T00:24:42.327Z,3.13
2019-03-20T00:27:08.888Z,2.70
2019-03-20T00:29:35.702Z,2.50
2019-03-20T00:44:15.491Z,3.10
2019-03-20T00:46:41.990Z,3.47
2019-03-20T00:49:08.837Z,2.33
2019-03-20T00:51:35.459Z,2.70
2019-03-20T00:54:01.917Z,2.90
2019-03-20T00:56:28.313Z,2.80
2019-03-20T00:58:56.132Z,2.37
2019-03-20T01:01:22.628Z,2.70
2019-03-20T01:03:49.093Z,2.50
2019-03-20T01:06:15.455Z,2.57
2019-03-20T01:08:42.049Z,2.40
2019-03-20T01:11:08.960Z,2.77
2019-03-20T01:13:35.406Z,2.80
2019-03-20T01:16:01.790Z,2.57
2019-03-20T01:18:28.486Z,2.40
2019-03-20T01:20:54.876Z,2.60
2019-03-20T01:23:21.217Z,2.17
2019-03-20T01:25:48.273Z,2.07
2019-03-20T01:28:14.759Z,2.87
2019-03-20T01:30:41.225Z,2.50
2019-03-20T01:33:11.436Z,2.20
2019-03-20T01:35:38.432Z,2.10
2019-03-20T01:38:05.708Z,2.87
2019-03-20T01:40:32.367Z,2.33
2019-03-20T01:42:58.730Z,1.90
2019-03-20T01:45:25.529Z,3.13
2019-03-20T01:47:52.852Z,3.27
2019-03-20T01:50:19.425Z,2.63
2019-03-20T01:52:46.108Z,2.57
2019-03-20T01:55:12.736Z,1.93
2019-03-20T01:57:39.587Z,3.23
2019-03-20T02:00:07.863Z,2.40
2019-03-20T02:02:34.524Z,3.70
2019-03-20T02:05:01.137Z,2.90
2019-03-20T02:07:27.908Z,2.50
2019-03-20T02:09:54.552Z,1.80
2019-03-20T02:12:21.017Z,2.53
2019-03-20T02:14:47.397Z,2.70
2019-03-20T02:17:41.582Z,2.97
2019-03-20T02:23:14.207Z,3.90
2019-03-20T02:25:40.699Z,2.77
2019-03-20T02:28:07.233Z,2.40
2019-03-20T02:30:34.597Z,2.83
2019-03-20T02:33:01.398Z,3.00
2019-03-20T02:35:27.943Z,2.70
2019-03-20T02:37:54.843Z,2.97
2019-03-20T02:40:21.291Z,3.00
2019-03-20T02:42:47.618Z,3.60
2019-03-20T02:45:14.774Z,3.00
2019-03-20T02:47:41.696Z,2.73
2019-03-20T02:50:09.613Z,3.47
2019-03-20T02:52:36.409Z,2.80
2019-03-20T02:55:05.263Z,3.47
2019-03-20T02:57:31.664Z,3.93
2019-03-20T02:59:58.169Z,2.80
2019-03-20T03:02:26.087Z,2.97
2019-03-20T03:04:52.660Z,2.83
2019-03-20T03:07:19.407Z,2.67
2019-03-20T03:09:45.945Z,2.70
2019-03-20T03:12:12.393Z,3.00
2019-03-20T03:14:38.950Z,2.37
2019-03-20T03:17:05.446Z,2.80
2019-03-20T03:19:31.961Z,2.97
2019-03-20T03:21:58.405Z,2.87
2019-03-20T03:24:24.805Z,2.20
2019-03-20T03:26:51.226Z,2.70
2019-03-20T03:29:17.709Z,2.57
2019-03-20T03:31:44.197Z,3.70
2019-03-20T03:34:10.587Z,2.70
2019-03-20T03:36:37.548Z,3.00
2019-03-20T03:51:16.891Z,4.20
2019-03-20T03:53:43.418Z,2.90
2019-03-20T03:56:09.793Z,2.87
2019-03-20T03:58:36.758Z,2.17
2019-03-20T04:01:03.321Z,2.37
2019-03-20T04:03:30.389Z,3.00
2019-03-20T04:05:56.926Z,2.80
2019-03-20T04:08:23.281Z,3.10
2019-03-20T04:10:49.635Z,2.77
2019-03-20T04:13:16.051Z,2.70
2019-03-20T04:15:42.640Z,2.40
2019-03-20T04:18:09.600Z,2.77
2019-03-20T04:20:36.739Z,3.20
2019-03-20T04:23:03.218Z,2.30
2019-03-20T04:25:29.702Z,2.40
2019-03-20T04:27:58.068Z,2.07
2019-03-20T04:30:24.490Z,2.53
2019-03-20T04:32:50.971Z,2.70
2019-03-20T04:35:17.749Z,3.40
2019-03-20T04:37:44.101Z,2.20
2019-03-20T04:40:12.276Z,2.70
2019-03-20T04:42:39.368Z,3.27
2019-03-20T04:45:12.079Z,2.50
2019-03-20T04:47:38.072Z,3.40
2019-03-20T04:50:06.540Z,3.90
2019-03-20T04:52:33.145Z,3.20
2019-03-20T04:54:59.638Z,2.87
2019-03-20T04:57:26.629Z,2.40
2019-03-20T04:59:53.344Z,2.40
2019-03-20T05:02:19.868Z,2.37
2019-03-20T05:04:46.944Z,2.70
2019-03-20T05:07:13.321Z,2.70
2019-03-20T05:09:39.828Z,2.70
2019-03-20T05:12:06.673Z,2.00
2019-03-20T05:14:33.128Z,3.07
2019-03-20T05:16:59.618Z,2.40
2019-03-20T05:19:26.564Z,2.67
2019-03-20T05:21:53.277Z,2.77
2019-03-20T05:24:19.636Z,3.10
2019-03-20T05:26:46.781Z,2.30
2019-03-20T05:29:13.407Z,2.80
2019-03-20T05:31:40.116Z,2.47
2019-03-20T05:34:06.844Z,2.40
2019-03-20T05:36:33.680Z,2.17
2019-03-20T05:39:00.189Z,2.00
2019-03-20T05:41:26.592Z,2.60
2019-03-20T05:43:53.211Z,3.23
2019-03-20T05:46:19.780Z,2.47
2019-03-20T05:48:46.613Z,2.57
2019-03-20T05:51:13.188Z,2.07
2019-03-20T05:53:39.780Z,2.20
2019-03-20T05:56:06.530Z,2.40
2019-03-20T05:58:33.136Z,2.10
2019-03-20T06:00:59.538Z,2.23
2019-03-20T06:03:26.313Z,2.47
2019-03-20T06:05:55.231Z,2.20
2019-03-20T06:08:22.395Z,2.60
2019-03-20T06:10:48.856Z,2.53
2019-03-20T06:13:15.595Z,2.57
2019-03-20T06:15:42.799Z,2.03
2019-03-20T06:18:13.486Z,2.07
2019-03-20T06:23:31.357Z,2.50
2019-03-20T06:31:53.724Z,2.57
2019-03-20T06:34:22.024Z,3.23
2019-03-20T06:36:48.724Z,2.40
2019-03-20T06:39:15.250Z,2.63
2019-03-20T06:41:42.634Z,2.50
2019-03-20T06:44:09.017Z,3.03
2019-03-20T06:46:36.545Z,2.70
2019-03-20T06:49:03.393Z,2.80
2019-03-20T06:51:30.213Z,3.10
2019-03-20T06:53:56.728Z,3.27
2019-03-20T06:56:23.637Z,3.00
2019-03-20T06:58:52.244Z,3.43
2019-03-20T07:01:22.470Z,3.20
2019-03-20T07:04:03.586Z,3.07
2019-03-20T07:06:43.268Z,4.50
2019-03-20T07:09:12.097Z,4.40
2019-03-20T07:11:39.512Z,3.63
2019-03-20T07:14:07.789Z,4.50
2019-03-20T07:16:34.237Z,4.60
2019-03-20T07:19:01.456Z,4.03
2019-03-20T07:21:28.476Z,5.03
2019-03-20T07:23:56.143Z,4.83
2019-03-20T07:26:23.700Z,4.37
2019-03-20T07:28:50.261Z,5.80
2019-03-20T07:31:17.240Z,6.00
2019-03-20T07:33:43.571Z,5.60
2019-03-20T07:36:10.008Z,6.17
2019-03-20T07:38:36.794Z,6.10
2019-03-20T07:41:03.375Z,6.10
2019-03-20T07:43:30.179Z,5.53
2019-03-20T07:45:56.855Z,5.77
2019-03-20T07:48:23.585Z,6.83
2019-03-20T07:50:50.271Z,7.30
2019-03-20T07:53:17.624Z,6.60
2019-03-20T07:55:44.125Z,5.70
2019-03-20T07:58:11.953Z,6.20
2019-03-20T08:00:38.726Z,7.00
2019-03-20T08:03:05.319Z,6.40
2019-03-20T08:05:31.817Z,6.87
2019-03-20T08:08:07.158Z,7.20
2019-03-20T08:10:27.758Z,8.07
2019-03-20T08:12:54.262Z,6.37
2019-03-20T08:15:20.957Z,7.83
2019-03-20T08:17:47.493Z,6.87
2019-03-20T08:20:15.747Z,7.07
2019-03-20T08:22:42.160Z,7.33
2019-03-20T08:25:09.202Z,8.00
2019-03-20T08:27:36.072Z,6.47
2019-03-20T08:30:15.930Z,8.20
2019-03-20T08:32:42.492Z,6.87
2019-03-20T08:35:11.935Z,8.80
2019-03-20T08:37:39.097Z,8.60
2019-03-20T08:40:07.504Z,8.80
2019-03-20T08:42:34.112Z,9.13
2019-03-20T08:45:01.017Z,10.40
2019-03-20T08:47:27.880Z,9.70
2019-03-20T08:49:54.673Z,9.63
2019-03-20T08:52:21.590Z,11.60
2019-03-20T08:54:48.326Z,10.00
2019-03-20T08:57:14.759Z,10.63
2019-03-20T08:59:41.172Z,11.40
2019-03-20T09:02:07.713Z,11.13
2019-03-20T09:04:35.773Z,14.23
2019-03-20T09:07:02.800Z,9.70
2019-03-20T09:09:30.690Z,9.03
2019-03-20T09:11:57.470Z,7.93
2019-03-20T09:19:18.319Z,12.30
2019-03-20T09:21:44.888Z,10.87
2019-03-20T09:24:11.263Z,10.57
2019-03-20T09:26:37.748Z,10.33
2019-03-20T09:29:04.535Z,8.03
2019-03-20T09:31:31.032Z,11.33
2019-03-20T09:33:57.437Z,10.50
2019-03-20T09:36:23.945Z,10.60
2019-03-20T09:38:50.671Z,10.83
2019-03-20T09:41:17.282Z,10.93
2019-03-20T09:43:44.096Z,11.03
2019-03-20T09:46:10.521Z,10.47
2019-03-20T09:48:37.324Z,10.67
2019-03-20T09:51:03.870Z,9.00
2019-03-20T09:53:30.254Z,10.10
2019-03-20T09:55:56.976Z,10.23
2019-03-20T09:58:24.410Z,12.40
2019-03-20T10:00:51.250Z,10.60
2019-03-20T10:03:18.062Z,12.00
2019-03-20T10:05:44.996Z,11.37
2019-03-20T10:08:11.485Z,11.70
2019-03-20T10:10:39.589Z,11.20
2019-03-20T10:13:06.340Z,11.40
2019-03-20T10:15:32.719Z,10.77
2019-03-20T10:17:59.605Z,12.20
2019-03-20T10:20:26.339Z,12.67
2019-03-20T10:22:53.679Z,11.77
2019-03-20T10:25:20.654Z,11.80
2019-03-20T10:27:48.540Z,10.93
2019-03-20T10:30:17.237Z,10.83
2019-03-20T10:32:43.877Z,12.80
2019-03-20T10:35:10.783Z,13.70
2019-03-20T10:37:37.149Z,15.40
2019-03-20T10:40:05.951Z,15.07
2019-03-20T10:42:32.815Z,12.90
2019-03-20T10:44:59.318Z,14.43
2019-03-20T10:47:25.664Z,13.10
2019-03-20T10:49:52.147Z,13.80
2019-03-20T10:52:18.686Z,12.60
2019-03-20T10:54:45.418Z,12.97
2019-03-20T10:57:12.186Z,13.10
2019-03-20T10:59:38.590Z,13.30
2019-03-20T11:02:05.445Z,13.37
2019-03-20T11:04:32.670Z,11.80
2019-03-20T11:07:01.462Z,15.57
2019-03-20T11:09:28.415Z,11.53
2019-03-20T11:11:55.680Z,13.60
2019-03-20T11:14:22.167Z,15.67
2019-03-20T11:16:49.116Z,16.17
2019-03-20T11:19:15.872Z,14.77
2019-03-20T11:21:42.388Z,14.73
2019-03-20T11:24:09.009Z,15.03
2019-03-20T11:26:36.222Z,16.23
2019-03-20T11:29:02.897Z,13.90
2019-03-20T11:31:29.720Z,15.50
2019-03-20T11:33:56.494Z,16.40
2019-03-20T11:36:22.988Z,16.20
2019-03-20T11:38:49.714Z,14.73
2019-03-20T11:41:16.579Z,16.57
2019-03-20T11:43:43.303Z,16.30
2019-03-20T11:46:10.190Z,17.20
2019-03-20T11:48:37.134Z,18.17
2019-03-20T11:51:03.947Z,15.20
2019-03-20T11:53:31.637Z,17.37
2019-03-20T11:55:58.726Z,14.70
2019-03-20T11:58:25.935Z,16.00
2019-03-20T12:00:53.414Z,18.70
2019-03-20T12:03:21.719Z,16.57
2019-03-20T12:05:48.364Z,16.40
2019-03-20T12:08:15.098Z,19.20
2019-03-20T12:10:44.500Z,18.87
2019-03-20T12:13:11.832Z,18.63
2019-03-20T12:15:38.326Z,19.13
2019-03-20T12:18:05.068Z,18.13
2019-03-20T12:20:31.833Z,18.30
2019-03-20T12:22:58.748Z,17.83
2019-03-20T12:25:29.343Z,19.20
2019-03-20T12:27:56.147Z,18.97
2019-03-20T12:30:32.160Z,19.27
2019-03-20T12:32:58.783Z,15.20
2019-03-20T12:35:27.268Z,20.33
2019-03-20T12:37:54.058Z,20.00
2019-03-20T12:40:21.995Z,18.23
2019-03-20T12:42:48.932Z,19.10
2019-03-20T12:45:21.257Z,19.70
2019-03-20T12:47:47.727Z,13.93
2019-03-20T12:50:14.460Z,14.37
2019-03-20T12:52:42.934Z,19.40
2019-03-20T12:55:10.794Z,16.13
2019-03-20T12:57:37.197Z,15.63
2019-03-20T13:00:13.620Z,16.10
2019-03-20T13:02:40.368Z,16.37
2019-03-20T13:05:09.445Z,19.10
2019-03-20T13:07:36.122Z,15.70
2019-03-20T13:10:04.698Z,16.33
2019-03-20T13:12:31.075Z,17.13
2019-03-20T13:14:58.337Z,17.50
2019-03-20T13:17:27.082Z,15.13
2019-03-20T13:19:53.809Z,19.73
2019-03-20T13:22:23.316Z,15.53
2019-03-20T13:24:49.700Z,14.80
2019-03-20T13:27:16.531Z,16.77
2019-03-20T13:29:44.771Z,16.83
2019-03-20T13:32:11.668Z,14.40
2019-03-20T13:34:38.642Z,17.40
2019-03-20T13:37:05.238Z,13.97
2019-03-20T13:39:32.030Z,16.47
2019-03-20T13:41:59.716Z,18.20
2019-03-20T13:44:26.290Z,14.70
2019-03-20T13:46:52.901Z,17.20
2019-03-20T13:49:20.467Z,18.40
2019-03-20T13:51:52.937Z,16.17
2019-03-20T13:54:21.592Z,15.37
2019-03-20T13:56:48.408Z,16.60
2019-03-20T13:59:15.016Z,14.80
2019-03-20T14:01:41.939Z,16.80
2019-03-20T14:04:08.675Z,16.10
2019-03-20T14:06:35.444Z,17.17
2019-03-20T14:09:04.817Z,14.17
2019-03-20T14:11:31.569Z,17.27
2019-03-20T14:13:58.453Z,16.13
2019-03-20T14:16:26.230Z,17.70
2019-03-20T14:18:53.238Z,15.90
2019-03-20T14:21:20.102Z,15.20
2019-03-20T14:23:46.969Z,16.60
2019-03-20T14:26:13.528Z,11.03
2019-03-20T14:28:40.357Z,19.30
2019-03-20T14:31:07.458Z,17.37
2019-03-20T14:33:33.840Z,18.93
2019-03-20T14:36:00.673Z,14.67
2019-03-20T14:38:27.479Z,15.77
2019-03-20T14:40:53.881Z,17.83
2019-03-20T14:43:20.759Z,16.40
2019-03-20T14:45:47.597Z,16.30
2019-03-20T14:48:14.169Z,15.60
2019-03-20T14:50:40.882Z,14.20
2019-03-20T14:53:07.672Z,16.33
2019-03-20T14:55:34.472Z,21.97
2019-03-20T14:58:01.338Z,21.60
2019-03-20T15:00:28.898Z,20.40
2019-03-20T15:02:56.624Z,15.00
2019-03-20T15:05:24.449Z,19.70
2019-03-20T15:07:56.681Z,17.20
2019-03-20T15:10:28.051Z,20.83
2019-03-20T15:12:55.386Z,21.53
2019-03-20T15:15:29.701Z,21.20
2019-03-20T15:17:57.040Z,17.30
2019-03-20T15:20:23.823Z,21.60
2019-03-20T15:22:50.658Z,15.77
2019-03-20T15:25:17.408Z,17.10
2019-03-20T15:27:44.960Z,23.10
2019-03-20T15:30:14.810Z,23.73
2019-03-20T15:32:41.816Z,21.77
2019-03-20T15:35:10.354Z,19.30
2019-03-20T15:37:37.306Z,17.83
2019-03-20T15:40:14.272Z,23.40
2019-03-20T15:42:41.014Z,22.10
2019-03-20T15:45:12.190Z,23.83
2019-03-20T15:47:39.086Z,24.17
2019-03-20T15:50:14.034Z,21.60
2019-03-20T15:52:42.334Z,13.30
2019-03-20T15:55:15.473Z,17.47
2019-03-20T15:57:42.077Z,25.17
2019-03-20T16:00:10.997Z,24.27
2019-03-20T16:02:37.426Z,19.60
2019-03-20T16:05:06.457Z,16.77
2019-03-20T16:07:33.943Z,23.60
2019-03-20T16:10:16.342Z,27.77
2019-03-20T16:12:43.043Z,26.37
2019-03-20T16:15:15.061Z,26.07
2019-03-20T16:17:41.789Z,25.57
2019-03-20T16:20:11.142Z,18.30
2019-03-20T16:22:37.507Z,24.73
2019-03-20T16:25:07.875Z,27.73
2019-03-20T16:27:35.150Z,27.17
2019-03-20T16:30:02.391Z,27.67
2019-03-20T16:32:29.138Z,28.27
2019-03-20T16:34:55.655Z,29.30
2019-03-20T16:37:24.540Z,29.13
2019-03-20T16:39:51.185Z,30.00
2019-03-20T16:42:18.012Z,30.23
2019-03-20T16:44:45.500Z,29.10
2019-03-20T16:47:13.101Z,32.53
2019-03-20T16:49:41.118Z,17.93
2019-03-20T16:52:07.748Z,27.37
2019-03-20T16:54:34.141Z,28.40
2019-03-20T16:57:00.918Z,27.10
2019-03-20T16:59:27.624Z,30.27
2019-03-20T17:01:54.753Z,30.00
2019-03-20T17:04:21.495Z,28.23
2019-03-20T17:06:48.084Z,26.60
2019-03-20T17:09:14.942Z,30.50
2019-03-20T17:11:43.850Z,31.40
2019-03-20T17:14:11.097Z,23.47
2019-03-20T17:16:42.716Z,25.77
2019-03-20T17:19:06.518Z,32.50
2019-03-20T17:21:36.237Z,17.97
2019-03-20T17:24:03.468Z,24.00
2019-03-20T17:26:31.504Z,24.40
2019-03-20T17:29:08.610Z,32.00
2019-03-20T17:31:28.759Z,32.20
2019-03-20T17:33:55.645Z,27.93
2019-03-20T17:36:23.007Z,31.77
2019-03-20T17:38:55.513Z,30.93
2019-03-20T17:41:25.938Z,29.47
2019-03-20T17:43:54.180Z,31.50
2019-03-20T17:46:21.342Z,29.93
2019-03-20T17:48:50.539Z,28.07
2019-03-20T17:51:17.301Z,33.83
2019-03-20T17:53:44.171Z,29.77
2019-03-20T17:56:11.102Z,25.40
2019-03-20T17:58:37.519Z,31.10
2019-03-20T18:01:04.055Z,27.00
2019-03-20T18:03:30.823Z,24.33
2019-03-20T18:05:57.656Z,28.80
2019-03-20T18:08:24.716Z,20.30
2019-03-20T18:10:51.380Z,29.20
2019-03-20T18:13:18.128Z,31.60
2019-03-20T18:15:46.837Z,31.07
2019-03-20T18:18:13.434Z,27.40
2019-03-20T18:20:40.425Z,30.83
2019-03-20T18:23:07.481Z,24.03
2019-03-20T18:25:34.069Z,27.57
2019-03-20T18:28:00.902Z,31.73
2019-03-20T18:30:39.243Z,31.30
2019-03-20T18:33:06.094Z,34.07
2019-03-20T18:35:32.690Z,29.43
2019-03-20T18:38:00.121Z,31.70
2019-03-20T18:40:27.189Z,29.50
2019-03-20T18:42:54.144Z,22.93
2019-03-20T18:45:21.598Z,32.17
2019-03-20T18:47:48.424Z,30.17
2019-03-20T18:50:17.180Z,30.30
2019-03-20T18:52:43.856Z,30.57
2019-03-20T18:55:12.121Z,30.77
2019-03-20T18:57:38.568Z,31.83
2019-03-20T19:00:17.709Z,30.00
2019-03-20T19:02:44.303Z,30.00
2019-03-20T19:05:17.327Z,28.07
2019-03-20T19:07:43.995Z,26.60
2019-03-20T19:10:11.055Z,27.53
2019-03-20T19:12:37.658Z,31.07
2019-03-20T19:15:11.849Z,28.80
2019-03-20T19:17:40.309Z,32.03
2019-03-20T19:20:10.144Z,27.50
2019-03-20T19:22:36.873Z,28.03
2019-03-20T19:25:07.497Z,30.67
2019-03-20T19:27:33.966Z,25.03
2019-03-20T19:30:00.708Z,26.77
2019-03-20T19:32:27.885Z,26.17
2019-03-20T19:34:54.622Z,25.00
2019-03-20T19:37:21.270Z,25.47
2019-03-20T19:39:47.894Z,24.40
2019-03-20T19:42:19.932Z,25.17
2019-03-20T19:44:42.936Z,28.87
2019-03-20T19:47:09.837Z,28.17
2019-03-20T19:49:36.331Z,29.10
2019-03-20T19:52:04.631Z,24.13
2019-03-20T19:54:31.344Z,24.83
2019-03-20T19:56:57.826Z,26.73
2019-03-20T19:59:24.668Z,27.90
2019-03-20T20:01:51.135Z,27.30
2019-03-20T20:04:17.658Z,26.30
2019-03-20T20:06:44.071Z,27.63
2019-03-20T20:09:10.622Z,25.20
2019-03-20T20:11:37.081Z,24.70
2019-03-20T20:14:03.859Z,27.30
2019-03-20T20:16:30.369Z,23.57
2019-03-20T20:18:56.760Z,25.10
2019-03-20T20:21:25.547Z,27.10
2019-03-20T20:23:52.045Z,27.10
2019-03-20T20:26:18.446Z,26.23
2019-03-20T20:28:45.627Z,28.10
2019-03-20T20:31:12.138Z,27.30
2019-03-20T20:33:38.744Z,26.57
2019-03-20T20:36:05.636Z,26.83
2019-03-20T20:38:32.090Z,25.90
2019-03-20T20:41:01.673Z,28.40
2019-03-20T20:43:28.062Z,29.13
2019-03-20T20:45:55.185Z,28.57
2019-03-20T20:48:22.665Z,29.67
2019-03-20T20:50:50.530Z,31.77
2019-03-20T20:53:17.026Z,34.43
2019-03-20T20:55:45.240Z,32.90
2019-03-20T20:58:12.053Z,31.37
2019-03-20T21:00:38.650Z,29.17
2019-03-20T21:03:05.244Z,26.70
2019-03-20T21:05:32.594Z,27.50
2019-03-20T21:07:59.871Z,34.80
2019-03-20T21:10:26.664Z,31.67
2019-03-20T21:12:56.638Z,30.90
2019-03-20T21:15:36.973Z,32.50
2019-03-20T21:18:12.803Z,30.00
2019-03-20T21:20:39.257Z,29.47
2019-03-20T21:23:25.804Z,31.77
2019-03-20T21:25:52.787Z,29.43
2019-03-20T21:28:31.471Z,27.90
2019-03-20T21:31:06.049Z,29.23
2019-03-20T21:33:51.423Z,30.50
2019-03-20T21:36:46.007Z,28.73
2019-03-20T21:39:12.414Z,28.43
2019-03-20T21:41:58.941Z,27.23
2019-03-20T21:45:02.503Z,28.47
2019-03-20T21:47:32.797Z,26.43
2019-03-20T21:50:24.134Z,26.43
2019-03-20T21:52:50.601Z,24.90
2019-03-20T21:55:20.799Z,25.27
2019-03-20T21:57:53.951Z,24.70
2019-03-20T22:00:40.730Z,27.23
2019-03-20T22:03:07.123Z,29.40
2019-03-20T22:05:52.304Z,23.60
2019-03-20T22:08:19.246Z,25.33
2019-03-20T22:11:11.938Z,25.10
2019-03-20T22:13:42.146Z,22.77
2019-03-20T22:16:30.142Z,22.00
2019-03-20T22:19:06.606Z,24.53
2019-03-20T22:21:53.469Z,21.30
2019-03-20T22:24:32.867Z,21.53
2019-03-20T22:27:21.025Z,24.87
2019-03-20T22:29:48.201Z,25.30
2019-03-20T22:32:30.626Z,26.47
2019-03-20T22:35:19.057Z,25.53
2019-03-20T22:37:45.749Z,25.23
2019-03-20T22:40:37.175Z,23.47
2019-03-20T22:43:16.178Z,22.60
2019-03-20T22:46:03.705Z,21.27
2019-03-20T22:48:41.139Z,21.80
2019-03-20T22:51:11.366Z,14.30
2019-03-20T22:53:50.472Z,20.10
2019-03-20T22:56:35.897Z,17.53
2019-03-20T22:59:02.464Z,15.00
2019-03-20T23:01:38.121Z,17.13
2019-03-20T23:04:16.938Z,14.63
2019-03-20T23:06:43.456Z,11.60
2019-03-20T23:09:10.675Z,15.23
2019-03-20T23:11:37.178Z,19.23
2019-03-20T23:14:03.738Z,17.50
2019-03-20T23:16:30.222Z,16.37
2019-03-20T23:18:57.068Z,18.53
2019-03-20T23:21:24.271Z,19.77
2019-03-20T23:23:51.003Z,21.57
2019-03-20T23:26:17.519Z,19.00
2019-03-20T23:28:44.364Z,22.27
2019-03-20T23:31:11.607Z,19.10
2019-03-20T23:33:38.013Z,22.27
2019-03-20T23:36:04.863Z,26.27
2019-03-20T23:38:31.347Z,24.27
2019-03-20T23:40:57.816Z,18.37
2019-03-20T23:43:25.020Z,20.30
2019-03-20T23:45:52.340Z,19.73
2019-03-20T23:48:40.384Z,16.30
2019-03-20T23:51:18.834Z,15.07
2019-03-20T23:53:46.698Z,12.57
2019-03-20T23:56:13.162Z,17.27
2019-03-20T23:58:40.076Z,13.87
